createdAt,value
2022-07-29T00:02:15.205Z,15.47
2022-07-29T00:04:41.773Z,15.46
2022-07-29T00:07:08.338Z,15.45
2022-07-29T00:09:50.394Z,15.45
2022-07-29T00:12:18.247Z,15.46
2022-07-29T00:14:53.891Z,15.48
2022-07-29T00:17:20.394Z,15.51
2022-07-29T00:19:46.937Z,15.55
2022-07-29T00:22:13.520Z,15.58
2022-07-29T00:24:40.164Z,15.62
2022-07-29T00:27:06.722Z,15.65
2022-07-29T00:29:34.661Z,15.67
2022-07-29T00:32:02.208Z,15.69
2022-07-29T00:34:47.576Z,15.72
2022-07-29T00:37:14.083Z,15.73
2022-07-29T00:39:40.544Z,15.75
2022-07-29T00:42:07.392Z,15.75
2022-07-29T00:44:41.263Z,15.73
2022-07-29T00:47:10.027Z,15.74
2022-07-29T00:49:37.671Z,15.72
2022-07-29T00:52:08.837Z,15.69
2022-07-29T00:54:37.422Z,15.68
2022-07-29T00:57:13.265Z,15.66
2022-07-29T00:59:40.106Z,15.64
2022-07-29T01:02:06.684Z,15.65
2022-07-29T01:04:33.512Z,15.65
2022-07-29T01:07:02.831Z,15.64
2022-07-29T01:09:42.877Z,15.63
2022-07-29T01:12:19.249Z,15.63
2022-07-29T01:14:48.058Z,15.64
2022-07-29T01:17:33.035Z,15.64
2022-07-29T01:20:12.675Z,15.63
2022-07-29T01:22:58.868Z,15.63
2022-07-29T01:26:08.265Z,15.63
2022-07-29T01:28:50.422Z,15.62
2022-07-29T01:31:26.467Z,15.60
2022-07-29T01:33:59.721Z,15.60
2022-07-29T01:36:49.483Z,15.57
2022-07-29T01:39:33.407Z,15.57
2022-07-29T01:42:13.540Z,15.58
2022-07-29T01:44:52.261Z,15.58
2022-07-29T01:47:24.332Z,15.56
2022-07-29T01:49:55.629Z,15.55
2022-07-29T01:52:44.075Z,15.54
2022-07-29T01:55:14.917Z,15.53
2022-07-29T01:57:45.082Z,15.52
2022-07-29T02:00:12.779Z,15.52
2022-07-29T02:02:43.343Z,15.52
2022-07-29T02:05:15.723Z,15.51
2022-07-29T02:07:44.409Z,15.51
2022-07-29T02:10:15.661Z,15.51
2022-07-29T02:12:48.624Z,15.52
2022-07-29T02:15:18.119Z,15.51
2022-07-29T02:17:52.276Z,15.51
2022-07-29T02:20:19.869Z,15.51
2022-07-29T02:22:48.136Z,15.53
2022-07-29T02:25:16.214Z,15.54
2022-07-29T02:27:45.460Z,15.54
2022-07-29T02:30:13.575Z,15.54
2022-07-29T02:32:42.690Z,15.55
2022-07-29T02:35:11.705Z,15.54
2022-07-29T02:37:39.162Z,15.53
2022-07-29T02:40:09.754Z,15.52
2022-07-29T02:42:38.443Z,15.48
2022-07-29T02:45:06.857Z,15.47
2022-07-29T02:47:50.707Z,15.43
2022-07-29T02:50:23.508Z,15.41
2022-07-29T02:53:04.412Z,15.39
2022-07-29T02:55:58.906Z,15.36
2022-07-29T02:58:31.763Z,15.35
2022-07-29T03:01:02.299Z,15.34
2022-07-29T03:03:36.810Z,15.32
2022-07-29T03:06:04.804Z,15.33
2022-07-29T03:08:33.182Z,15.31
2022-07-29T03:11:01.480Z,15.31
2022-07-29T03:13:29.387Z,15.31
2022-07-29T03:15:56.827Z,15.30
2022-07-29T03:18:23.457Z,15.28
2022-07-29T03:20:50.497Z,15.28
2022-07-29T03:23:21.847Z,15.25
2022-07-29T03:25:48.613Z,15.24
2022-07-29T03:28:15.103Z,15.24
2022-07-29T03:30:44.614Z,15.23
2022-07-29T03:33:13.516Z,15.22
2022-07-29T03:35:40.729Z,15.21
2022-07-29T03:38:07.345Z,15.21
2022-07-29T03:40:52.514Z,15.20
2022-07-29T03:43:21.028Z,15.20
2022-07-29T03:45:51.206Z,15.21
2022-07-29T03:48:21.825Z,15.21
2022-07-29T03:50:49.273Z,15.22
2022-07-29T03:53:16.597Z,15.24
2022-07-29T03:55:47.159Z,15.26
2022-07-29T03:58:15.563Z,15.28
2022-07-29T04:00:43.513Z,15.30
2022-07-29T04:03:11.785Z,15.31
2022-07-29T04:05:38.562Z,15.34
2022-07-29T04:08:05.570Z,15.35
2022-07-29T04:10:34.105Z,15.37
2022-07-29T04:13:02.203Z,15.38
2022-07-29T04:15:31.480Z,15.40
2022-07-29T04:17:59.160Z,15.40
2022-07-29T04:20:25.681Z,15.40
2022-07-29T04:22:52.197Z,15.39
2022-07-29T04:25:18.711Z,15.39
2022-07-29T04:28:03.270Z,15.38
2022-07-29T04:30:31.442Z,15.41
2022-07-29T04:32:58.072Z,15.42
2022-07-29T04:35:24.638Z,15.44
2022-07-29T04:37:51.104Z,15.48
2022-07-29T04:40:17.760Z,15.51
2022-07-29T04:42:46.846Z,15.54
2022-07-29T04:45:15.111Z,15.58
2022-07-29T04:47:43.065Z,15.63
2022-07-29T04:50:10.533Z,15.66
2022-07-29T04:52:37.746Z,15.70
2022-07-29T04:55:06.212Z,15.71
2022-07-29T04:57:33.095Z,15.73
2022-07-29T04:59:59.621Z,15.77
2022-07-29T05:02:26.336Z,15.80
2022-07-29T05:04:52.860Z,15.82
2022-07-29T05:07:19.523Z,15.86
2022-07-29T05:09:46.011Z,15.90
2022-07-29T05:12:12.941Z,15.94
2022-07-29T05:14:39.407Z,15.97
2022-07-29T05:17:06.433Z,16.00
2022-07-29T05:19:33.078Z,16.05
2022-07-29T05:22:00.980Z,16.08
2022-07-29T05:24:27.472Z,16.10
2022-07-29T05:26:53.997Z,16.11
2022-07-29T05:29:44.943Z,16.14
2022-07-29T05:32:07.535Z,16.16
2022-07-29T05:34:34.110Z,16.19
2022-07-29T05:37:00.725Z,16.24
2022-07-29T05:39:48.862Z,16.28
2022-07-29T05:42:13.802Z,16.36
2022-07-29T05:44:41.215Z,16.44
2022-07-29T05:47:07.802Z,16.52
2022-07-29T05:49:34.417Z,16.61
2022-07-29T05:52:01.077Z,16.69
2022-07-29T05:54:27.676Z,16.76
2022-07-29T05:56:54.356Z,16.82
2022-07-29T05:59:20.847Z,16.91
2022-07-29T06:01:47.559Z,17.01
2022-07-29T06:04:14.552Z,17.13
2022-07-29T06:06:41.379Z,17.25
2022-07-29T06:09:12.167Z,17.40
2022-07-29T06:11:39.523Z,17.57
2022-07-29T06:14:06.106Z,17.72
2022-07-29T06:16:32.778Z,17.81
2022-07-29T06:18:59.595Z,17.90
2022-07-29T06:21:26.247Z,17.97
2022-07-29T06:23:52.799Z,18.03
2022-07-29T06:26:19.316Z,18.09
2022-07-29T06:28:58.111Z,18.17
2022-07-29T06:31:24.828Z,18.21
2022-07-29T06:33:51.510Z,18.29
2022-07-29T06:36:21.311Z,18.43
2022-07-29T06:38:51.352Z,18.57
2022-07-29T06:41:19.172Z,18.74
2022-07-29T06:43:52.275Z,18.91
2022-07-29T06:46:22.201Z,19.03
2022-07-29T06:48:49.117Z,19.14
2022-07-29T06:51:16.288Z,19.22
2022-07-29T06:54:01.422Z,19.31
2022-07-29T06:56:39.213Z,19.38
2022-07-29T06:59:08.183Z,19.42
2022-07-29T07:01:34.969Z,19.43
2022-07-29T07:04:01.569Z,19.45
2022-07-29T07:06:28.490Z,19.46
2022-07-29T07:08:55.026Z,19.46
2022-07-29T07:11:21.574Z,19.48
2022-07-29T07:13:48.105Z,19.50
2022-07-29T07:16:14.880Z,19.58
2022-07-29T07:18:41.647Z,19.65
2022-07-29T07:21:08.386Z,19.74
2022-07-29T07:23:34.914Z,19.80
2022-07-29T07:26:01.422Z,19.89
2022-07-29T07:28:28.145Z,19.91
2022-07-29T07:30:54.656Z,19.91
2022-07-29T07:33:21.252Z,19.95
2022-07-29T07:35:48.161Z,20.02
2022-07-29T07:38:14.785Z,20.09
2022-07-29T07:40:41.912Z,20.13
2022-07-29T07:43:08.645Z,20.22
2022-07-29T07:45:35.330Z,20.37
2022-07-29T07:48:02.106Z,20.47
2022-07-29T07:50:28.669Z,20.59
2022-07-29T07:52:59.034Z,20.71
2022-07-29T07:55:26.676Z,20.84
2022-07-29T07:57:53.884Z,20.90
2022-07-29T08:00:23.125Z,21.03
2022-07-29T08:02:51.052Z,21.11
2022-07-29T08:05:18.401Z,21.24
2022-07-29T08:07:47.000Z,21.33
2022-07-29T08:10:37.871Z,21.46
2022-07-29T08:13:08.763Z,21.59
2022-07-29T08:15:36.211Z,21.67
2022-07-29T08:18:08.031Z,21.78
2022-07-29T08:20:37.396Z,21.87
2022-07-29T08:23:05.409Z,21.95
2022-07-29T08:25:31.977Z,22.04
2022-07-29T08:28:01.679Z,22.13
2022-07-29T08:30:28.596Z,22.23
2022-07-29T08:32:56.259Z,22.38
2022-07-29T08:35:24.796Z,22.52
2022-07-29T08:37:52.464Z,22.64
2022-07-29T08:40:21.407Z,22.73
2022-07-29T08:42:58.665Z,22.82
2022-07-29T08:45:26.093Z,22.86
2022-07-29T08:47:53.326Z,22.89
2022-07-29T08:50:19.839Z,22.88
2022-07-29T08:52:46.699Z,22.89
2022-07-29T08:55:16.421Z,22.88
2022-07-29T08:57:53.416Z,22.92
2022-07-29T09:00:23.195Z,22.93
2022-07-29T09:02:55.931Z,22.96
2022-07-29T09:05:24.902Z,22.99
2022-07-29T09:07:51.805Z,22.96
2022-07-29T09:10:18.598Z,22.92
2022-07-29T09:12:45.440Z,22.89
2022-07-29T09:15:11.944Z,22.88
2022-07-29T09:17:47.003Z,22.85
2022-07-29T09:20:17.980Z,22.91
2022-07-29T09:22:48.101Z,23.01
2022-07-29T09:25:14.858Z,23.17
2022-07-29T09:27:41.764Z,23.34
2022-07-29T09:30:11.640Z,23.53
2022-07-29T09:33:02.393Z,23.66
2022-07-29T09:35:32.660Z,23.71
2022-07-29T09:38:10.993Z,23.67
2022-07-29T09:40:37.566Z,23.58
2022-07-29T09:43:14.867Z,23.47
2022-07-29T09:45:41.704Z,23.45
2022-07-29T09:48:18.391Z,23.42
2022-07-29T09:50:47.945Z,23.46
2022-07-29T09:53:31.502Z,23.51
2022-07-29T09:55:58.234Z,23.54
2022-07-29T09:58:24.911Z,23.61
2022-07-29T10:00:53.780Z,23.68
2022-07-29T10:03:20.616Z,23.71
2022-07-29T10:06:04.244Z,23.79
2022-07-29T10:08:31.673Z,23.85
2022-07-29T10:11:11.659Z,23.87
2022-07-29T10:13:39.095Z,23.90
2022-07-29T10:16:06.666Z,23.93
2022-07-29T10:18:34.681Z,23.96
2022-07-29T10:21:02.181Z,24.00
2022-07-29T10:23:30.241Z,24.06
2022-07-29T10:26:13.782Z,24.09
2022-07-29T10:28:40.260Z,24.02
2022-07-29T10:31:12.274Z,23.97
2022-07-29T10:33:52.857Z,23.92
2022-07-29T10:36:46.369Z,23.90
2022-07-29T10:39:22.348Z,23.93
2022-07-29T10:42:19.996Z,24.01
2022-07-29T10:44:47.789Z,24.10
2022-07-29T10:47:21.843Z,24.22
2022-07-29T10:50:03.702Z,24.34
2022-07-29T10:52:54.473Z,24.55
2022-07-29T10:55:43.089Z,24.75
2022-07-29T10:58:13.506Z,24.95
2022-07-29T11:00:40.259Z,25.14
2022-07-29T11:03:08.581Z,25.28
2022-07-29T11:05:55.234Z,25.42
2022-07-29T11:08:26.527Z,25.52
2022-07-29T11:11:20.337Z,25.61
2022-07-29T11:13:54.191Z,25.77
2022-07-29T11:16:24.924Z,25.93
2022-07-29T11:19:13.940Z,26.07
2022-07-29T11:21:54.805Z,26.19
2022-07-29T11:24:31.774Z,26.37
2022-07-29T11:27:14.483Z,26.48
2022-07-29T11:29:56.616Z,26.59
2022-07-29T11:32:25.272Z,26.74
2022-07-29T11:35:16.790Z,26.82
2022-07-29T11:37:55.303Z,26.82
2022-07-29T11:40:24.666Z,26.79
2022-07-29T11:42:52.635Z,26.80
2022-07-29T11:45:43.862Z,26.87
2022-07-29T11:48:28.462Z,26.99
2022-07-29T11:50:59.511Z,27.06
2022-07-29T11:53:29.111Z,27.14
2022-07-29T11:56:00.183Z,27.22
2022-07-29T11:58:27.177Z,27.25
2022-07-29T12:00:55.616Z,27.26
2022-07-29T12:03:35.303Z,27.25
2022-07-29T12:06:17.510Z,27.21
2022-07-29T12:08:45.455Z,27.15
2022-07-29T12:11:22.746Z,27.09
2022-07-29T12:13:51.665Z,27.09
2022-07-29T12:16:28.015Z,27.09
2022-07-29T12:18:57.989Z,27.10
2022-07-29T12:21:25.703Z,27.11
2022-07-29T12:23:57.744Z,27.18
2022-07-29T12:26:28.623Z,27.27
2022-07-29T12:28:55.564Z,27.41
2022-07-29T12:31:43.140Z,27.60
2022-07-29T12:34:11.009Z,27.79
2022-07-29T12:36:37.605Z,27.98
2022-07-29T12:39:05.178Z,28.10
2022-07-29T12:41:32.056Z,28.22
2022-07-29T12:43:58.623Z,28.37
2022-07-29T12:46:25.185Z,28.54
2022-07-29T12:48:56.233Z,28.76
2022-07-29T12:51:38.366Z,28.96
2022-07-29T12:54:08.397Z,29.03
2022-07-29T12:56:44.098Z,29.12
2022-07-29T12:59:20.302Z,29.22
2022-07-29T13:01:49.002Z,29.31
2022-07-29T13:04:33.589Z,29.40
2022-07-29T13:07:07.460Z,29.39
2022-07-29T13:09:42.638Z,29.44
2022-07-29T13:12:11.840Z,29.45
2022-07-29T13:14:42.452Z,29.46
2022-07-29T13:17:16.799Z,29.48
2022-07-29T13:19:48.436Z,29.45
2022-07-29T13:22:23.251Z,29.44
2022-07-29T13:24:56.214Z,29.49
2022-07-29T13:27:24.741Z,29.55
2022-07-29T13:29:53.400Z,29.60
2022-07-29T13:32:28.268Z,29.64
2022-07-29T13:35:01.164Z,29.68
2022-07-29T13:37:33.869Z,29.67
2022-07-29T13:40:01.109Z,29.59
2022-07-29T13:42:27.637Z,29.58
2022-07-29T13:44:54.233Z,29.55
2022-07-29T13:47:21.568Z,29.52
2022-07-29T13:49:48.666Z,29.55
2022-07-29T13:52:16.463Z,29.63
2022-07-29T13:54:44.018Z,29.67
2022-07-29T13:57:12.555Z,29.68
2022-07-29T13:59:46.750Z,29.63
2022-07-29T14:02:15.927Z,29.56
2022-07-29T14:04:42.501Z,29.40
2022-07-29T14:07:09.323Z,29.27
2022-07-29T14:09:41.027Z,29.13
2022-07-29T14:12:09.033Z,28.98
2022-07-29T14:14:37.327Z,28.84
2022-07-29T14:17:04.354Z,28.71
2022-07-29T14:19:32.931Z,28.60
2022-07-29T14:21:59.958Z,28.54
2022-07-29T14:24:26.757Z,28.47
2022-07-29T14:26:53.337Z,28.42
2022-07-29T14:29:19.930Z,28.39
2022-07-29T14:31:46.513Z,28.38
2022-07-29T14:34:13.311Z,28.29
2022-07-29T14:36:39.961Z,28.24
2022-07-29T14:39:06.485Z,28.18
2022-07-29T14:41:33.733Z,28.17
2022-07-29T14:44:01.642Z,28.17
2022-07-29T14:46:29.141Z,28.24
2022-07-29T14:48:56.094Z,28.27
2022-07-29T14:51:22.661Z,28.27
2022-07-29T14:53:49.171Z,28.30
2022-07-29T14:56:35.956Z,28.31
2022-07-29T14:59:02.166Z,28.30
2022-07-29T15:01:28.892Z,28.27
2022-07-29T15:03:59.410Z,28.19
2022-07-29T15:06:26.753Z,28.08
2022-07-29T15:08:53.395Z,27.94
2022-07-29T15:11:19.929Z,27.83
2022-07-29T15:13:46.776Z,27.73
2022-07-29T15:16:13.310Z,27.60
2022-07-29T15:18:40.001Z,27.49
2022-07-29T15:21:07.949Z,27.41
2022-07-29T15:23:37.359Z,27.30
2022-07-29T15:26:04.824Z,27.19
2022-07-29T15:28:31.505Z,27.07
2022-07-29T15:30:58.033Z,26.94
2022-07-29T15:33:24.594Z,26.82
2022-07-29T15:35:51.194Z,26.72
2022-07-29T15:38:18.400Z,26.60
2022-07-29T15:40:46.505Z,26.50
2022-07-29T15:43:13.384Z,26.40
2022-07-29T15:45:41.694Z,26.31
2022-07-29T15:48:09.476Z,26.23
2022-07-29T15:50:36.029Z,26.17
2022-07-29T15:53:02.637Z,26.13
2022-07-29T15:55:29.438Z,26.09
2022-07-29T15:58:00.245Z,26.02
2022-07-29T16:00:27.491Z,25.96
2022-07-29T16:02:54.041Z,25.90
2022-07-29T16:05:20.516Z,25.86
2022-07-29T16:07:47.118Z,25.78
2022-07-29T16:10:13.802Z,25.72
2022-07-29T16:12:40.325Z,25.67
2022-07-29T16:15:10.384Z,25.63
2022-07-29T16:17:38.193Z,25.61
2022-07-29T16:20:06.376Z,25.59
2022-07-29T16:22:32.888Z,25.57
2022-07-29T16:24:59.562Z,25.61
2022-07-29T16:27:31.313Z,25.63
2022-07-29T16:30:04.649Z,25.69
2022-07-29T16:32:31.185Z,25.73
2022-07-29T16:34:58.576Z,25.80
2022-07-29T16:37:25.115Z,25.90
2022-07-29T16:39:55.394Z,26.02
2022-07-29T16:42:44.256Z,26.19
2022-07-29T16:45:09.202Z,26.59
2022-07-29T16:47:36.194Z,27.44
2022-07-29T16:50:02.748Z,27.58
2022-07-29T16:52:29.346Z,28.82
2022-07-29T16:54:55.991Z,30.74
2022-07-29T16:57:22.512Z,31.82
2022-07-29T16:59:50.965Z,31.11
2022-07-29T17:02:18.117Z,30.57
2022-07-29T17:04:44.626Z,30.17
2022-07-29T17:07:11.625Z,29.98
2022-07-29T17:09:38.227Z,29.88
2022-07-29T17:12:05.181Z,29.69
2022-07-29T17:14:32.023Z,29.45
2022-07-29T17:17:02.282Z,29.29
2022-07-29T17:19:31.930Z,29.14
2022-07-29T17:22:07.007Z,28.99
2022-07-29T17:24:37.256Z,28.78
2022-07-29T17:27:05.238Z,28.58
2022-07-29T17:29:31.789Z,28.38
2022-07-29T17:31:59.497Z,28.15
2022-07-29T17:34:26.391Z,27.93
2022-07-29T17:36:53.469Z,27.73
2022-07-29T17:39:20.005Z,27.54
2022-07-29T17:41:46.880Z,27.41
2022-07-29T17:44:13.532Z,27.34
2022-07-29T17:46:40.651Z,27.30
2022-07-29T17:49:07.351Z,27.27
2022-07-29T17:51:34.019Z,27.43
2022-07-29T17:54:00.602Z,27.40
2022-07-29T17:56:27.145Z,27.22
2022-07-29T17:58:54.136Z,27.01
2022-07-29T18:01:21.009Z,26.79
2022-07-29T18:03:48.213Z,26.62
2022-07-29T18:06:14.740Z,26.49
2022-07-29T18:08:41.365Z,26.36
2022-07-29T18:11:07.954Z,26.22
2022-07-29T18:13:34.464Z,26.08
2022-07-29T18:16:01.162Z,25.96
2022-07-29T18:18:27.881Z,25.83
2022-07-29T18:20:54.353Z,25.73
2022-07-29T18:23:21.272Z,25.62
2022-07-29T18:25:47.805Z,25.53
2022-07-29T18:28:14.316Z,25.42
2022-07-29T18:30:41.525Z,25.31
2022-07-29T18:33:22.833Z,25.20
2022-07-29T18:35:51.838Z,25.10
2022-07-29T18:38:19.121Z,24.99
2022-07-29T18:40:46.213Z,24.88
2022-07-29T18:43:13.637Z,24.78
2022-07-29T18:45:40.611Z,24.67
2022-07-29T18:48:12.802Z,24.57
2022-07-29T18:50:40.484Z,24.49
2022-07-29T18:53:07.256Z,24.39
2022-07-29T18:55:33.888Z,24.30
2022-07-29T18:58:00.479Z,24.20
2022-07-29T19:00:27.607Z,24.09
2022-07-29T19:02:54.287Z,24.00
2022-07-29T19:05:21.273Z,23.91
2022-07-29T19:07:47.808Z,23.83
2022-07-29T19:10:14.538Z,23.74
2022-07-29T19:12:41.128Z,23.65
2022-07-29T19:15:08.477Z,23.55
2022-07-29T19:17:35.129Z,23.47
2022-07-29T19:20:02.410Z,23.37
2022-07-29T19:22:28.892Z,23.29
2022-07-29T19:24:55.439Z,23.22
2022-07-29T19:27:22.139Z,23.15
2022-07-29T19:29:48.686Z,23.07
2022-07-29T19:32:24.852Z,23.01
2022-07-29T19:35:11.212Z,22.96
2022-07-29T19:37:37.768Z,22.89
2022-07-29T19:40:05.597Z,22.82
2022-07-29T19:42:32.072Z,22.75
2022-07-29T19:44:58.782Z,22.68
2022-07-29T19:47:25.277Z,22.60
2022-07-29T19:49:51.820Z,22.52
2022-07-29T19:52:18.410Z,22.42
2022-07-29T19:54:44.932Z,22.36
2022-07-29T19:57:11.443Z,22.29
2022-07-29T19:59:38.082Z,22.20
2022-07-29T20:02:04.742Z,22.13
2022-07-29T20:04:31.340Z,22.05
2022-07-29T20:07:01.509Z,22.00
2022-07-29T20:09:28.637Z,21.94
2022-07-29T20:11:55.304Z,21.89
2022-07-29T20:14:22.098Z,21.86
2022-07-29T20:16:50.229Z,21.84
2022-07-29T20:19:17.070Z,21.83
2022-07-29T20:21:43.665Z,21.83
2022-07-29T20:24:10.531Z,21.83
2022-07-29T20:26:37.203Z,21.84
2022-07-29T20:29:05.264Z,21.84
2022-07-29T20:31:32.647Z,21.83
2022-07-29T20:34:03.239Z,21.83
2022-07-29T20:36:29.937Z,21.81
2022-07-29T20:38:57.028Z,21.77
2022-07-29T20:41:23.592Z,21.74
2022-07-29T20:43:50.152Z,21.69
2022-07-29T20:46:16.967Z,21.67
2022-07-29T20:48:43.736Z,21.66
2022-07-29T20:51:10.575Z,21.65
2022-07-29T20:53:41.060Z,21.64
2022-07-29T20:56:07.825Z,21.63
2022-07-29T20:58:36.091Z,21.63
2022-07-29T21:01:03.691Z,21.62
2022-07-29T21:03:30.337Z,21.61
2022-07-29T21:05:56.918Z,21.60
2022-07-29T21:08:23.425Z,21.59
2022-07-29T21:10:50.017Z,21.58
2022-07-29T21:13:17.022Z,21.56
2022-07-29T21:15:46.303Z,21.54
2022-07-29T21:18:30.262Z,21.53
2022-07-29T21:21:00.567Z,21.52
2022-07-29T21:23:27.624Z,21.52
2022-07-29T21:25:54.796Z,21.52
2022-07-29T21:28:28.767Z,21.51
2022-07-29T21:30:56.673Z,21.51
2022-07-29T21:33:24.521Z,21.50
2022-07-29T21:38:38.301Z,21.49
2022-07-29T21:41:06.002Z,21.49
2022-07-29T21:43:32.700Z,21.49
2022-07-29T21:46:00.877Z,21.48
2022-07-29T21:48:28.566Z,21.48
2022-07-29T21:50:55.143Z,21.48
2022-07-29T21:53:22.965Z,21.46
2022-07-29T21:55:51.785Z,21.47
2022-07-29T21:58:22.032Z,21.46
2022-07-29T22:00:49.063Z,21.46
2022-07-29T22:03:15.637Z,21.45
2022-07-29T22:05:42.453Z,21.45
2022-07-29T22:08:09.027Z,21.45
2022-07-29T22:10:35.833Z,21.43
2022-07-29T22:13:03.218Z,21.43
2022-07-29T22:15:30.142Z,21.41
2022-07-29T22:17:56.721Z,21.42
2022-07-29T22:20:24.100Z,21.41
2022-07-29T22:22:50.563Z,21.40
2022-07-29T22:25:17.669Z,21.40
2022-07-29T22:27:44.279Z,21.39
2022-07-29T22:30:11.975Z,21.39
2022-07-29T22:32:38.752Z,21.38
2022-07-29T22:35:05.687Z,21.37
2022-07-29T22:37:32.274Z,21.36
2022-07-29T22:39:58.815Z,21.37
2022-07-29T22:42:25.558Z,21.36
2022-07-29T22:44:52.221Z,21.36
2022-07-29T22:47:18.717Z,21.36
2022-07-29T22:50:06.469Z,21.44
2022-07-29T22:52:32.949Z,21.43
2022-07-29T22:54:59.434Z,21.44
2022-07-29T22:57:25.929Z,21.42
2022-07-29T22:59:52.492Z,21.43
2022-07-29T23:02:19.073Z,21.42
2022-07-29T23:04:45.572Z,21.39
2022-07-29T23:07:12.057Z,21.37
2022-07-29T23:09:38.546Z,21.35
2022-07-29T23:12:05.208Z,21.33
2022-07-29T23:14:31.734Z,21.29
2022-07-29T23:16:58.831Z,21.25
2022-07-29T23:19:25.598Z,21.21
2022-07-29T23:21:52.086Z,21.15
2022-07-29T23:24:18.609Z,21.11
2022-07-29T23:26:45.189Z,21.06
2022-07-29T23:29:11.681Z,21.03
2022-07-29T23:31:42.706Z,21.00
2022-07-29T23:34:14.721Z,20.96
2022-07-29T23:36:42.313Z,20.92
2022-07-29T23:39:13.175Z,20.86
2022-07-29T23:41:39.815Z,20.83
2022-07-29T23:44:06.395Z,20.78
2022-07-29T23:46:33.283Z,20.75
2022-07-29T23:48:59.996Z,20.72
2022-07-29T23:51:28.895Z,20.68
2022-07-29T23:53:55.405Z,20.63
2022-07-29T23:56:22.104Z,20.58
2022-07-29T23:58:48.598Z,20.55
